sensor_id;sensor_type;location;lat;lon;timestamp;pressure;altitude;pressure_sealevel;temperature;humidity
34983;BME280;21187;50.976;13.720;2024-03-22T00:03:14;98810.28;;;11.81;51.23
34983;BME280;21187;50.976;13.720;2024-03-22T00:08:15;98812.69;;;11.71;51.41
34983;BME280;21187;50.976;13.720;2024-03-22T00:13:15;98810.28;;;11.69;51.59
34983;BME280;21187;50.976;13.720;2024-03-22T00:18:16;98810.28;;;11.81;51.43
34983;BME280;21187;50.976;13.720;2024-03-22T00:23:17;98798.72;;;11.85;51.19
34983;BME280;21187;50.976;13.720;2024-03-22T00:28:18;98800.31;;;11.86;51.14
34983;BME280;21187;50.976;13.720;2024-03-22T00:33:18;98800.56;;;11.80;51.39
34983;BME280;21187;50.976;13.720;2024-03-22T00:38:19;98800.78;;;11.75;51.59
34983;BME280;21187;50.976;13.720;2024-03-22T00:43:20;98790.84;;;11.79;50.90
34983;BME280;21187;50.976;13.720;2024-03-22T00:48:21;98788.56;;;11.81;51.06
34983;BME280;21187;50.976;13.720;2024-03-22T00:53:22;98784.81;;;11.86;51.13
34983;BME280;21187;50.976;13.720;2024-03-22T00:58:23;98783.16;;;11.81;50.79
34983;BME280;21187;50.976;13.720;2024-03-22T01:03:24;98777.47;;;11.87;50.82
34983;BME280;21187;50.976;13.720;2024-03-22T01:08:24;98780.28;;;11.90;50.69
34983;BME280;21187;50.976;13.720;2024-03-22T01:13:25;98769.78;;;11.89;50.76
34983;BME280;21187;50.976;13.720;2024-03-22T01:18:26;98767.16;;;11.92;50.67
34983;BME280;21187;50.976;13.720;2024-03-22T01:23:27;98761.28;;;11.90;50.59
34983;BME280;21187;50.976;13.720;2024-03-22T01:28:28;98759.72;;;11.89;50.65
34983;BME280;21187;50.976;13.720;2024-03-22T01:33:28;98744.03;;;11.82;50.53
34983;BME280;21187;50.976;13.720;2024-03-22T01:38:29;98734.53;;;11.76;50.94
34983;BME280;21187;50.976;13.720;2024-03-22T01:43:30;98737.69;;;11.78;50.65
34983;BME280;21187;50.976;13.720;2024-03-22T01:48:31;98724.81;;;11.75;50.42
34983;BME280;21187;50.976;13.720;2024-03-22T01:53:34;98723.91;;;11.71;50.89
34983;BME280;21187;50.976;13.720;2024-03-22T01:58:36;98717.13;;;11.77;50.33
34983;BME280;21187;50.976;13.720;2024-03-22T02:03:37;98714.97;;;11.83;50.21
34983;BME280;21187;50.976;13.720;2024-03-22T02:08:37;98717.38;;;11.72;50.52
34983;BME280;21187;50.976;13.720;2024-03-22T02:13:40;98701.38;;;11.55;50.83
34983;BME280;21187;50.976;13.720;2024-03-22T02:18:41;98696.97;;;11.50;51.00
34983;BME280;21187;50.976;13.720;2024-03-22T02:23:42;98686.34;;;11.45;50.87
34983;BME280;21187;50.976;13.720;2024-03-22T02:28:43;98686.59;;;11.40;50.88
34983;BME280;21187;50.976;13.720;2024-03-22T02:33:43;98679.38;;;11.31;50.90
34983;BME280;21187;50.976;13.720;2024-03-22T02:38:44;98668.09;;;11.17;51.78
34983;BME280;21187;50.976;13.720;2024-03-22T02:43:45;98652.19;;;11.03;51.71
34983;BME280;21187;50.976;13.720;2024-03-22T02:48:46;98661.47;;;11.02;51.98
34983;BME280;21187;50.976;13.720;2024-03-22T02:53:46;98661.47;;;11.02;52.22
34983;BME280;21187;50.976;13.720;2024-03-22T02:58:49;98642.25;;;11.07;52.13
34983;BME280;21187;50.976;13.720;2024-03-22T03:03:50;98641.44;;;11.19;51.86
34983;BME280;21187;50.976;13.720;2024-03-22T03:08:51;98649.78;;;11.26;51.38
34983;BME280;21187;50.976;13.720;2024-03-22T03:13:51;98644.69;;;11.25;51.86
34983;BME280;21187;50.976;13.720;2024-03-22T03:18:52;98640.28;;;11.20;51.49
34983;BME280;21187;50.976;13.720;2024-03-22T03:23:53;98636.34;;;11.18;51.76
34983;BME280;21187;50.976;13.720;2024-03-22T03:28:54;98627.09;;;11.19;51.85
34983;BME280;21187;50.976;13.720;2024-03-22T03:33:56;98626.00;;;11.07;52.24
34983;BME280;21187;50.976;13.720;2024-03-22T03:38:57;98620.16;;;10.93;52.78
34983;BME280;21187;50.976;13.720;2024-03-22T03:43:57;98622.38;;;10.91;53.00
34983;BME280;21187;50.976;13.720;2024-03-22T03:48:58;98616.84;;;10.87;53.00
34983;BME280;21187;50.976;13.720;2024-03-22T03:53:59;98600.50;;;10.84;53.22
34983;BME280;21187;50.976;13.720;2024-03-22T03:59:00;98609.53;;;10.88;53.29
34983;BME280;21187;50.976;13.720;2024-03-22T04:04:02;98592.94;;;10.89;52.86
34983;BME280;21187;50.976;13.720;2024-03-22T04:09:03;98601.41;;;10.88;52.99
34983;BME280;21187;50.976;13.720;2024-03-22T04:14:04;98593.38;;;10.79;53.33
34983;BME280;21187;50.976;13.720;2024-03-22T04:19:05;98585.59;;;10.77;53.05
34983;BME280;21187;50.976;13.720;2024-03-22T04:24:06;98589.56;;;10.80;53.25
34983;BME280;21187;50.976;13.720;2024-03-22T04:29:07;98578.38;;;10.81;53.09
34983;BME280;21187;50.976;13.720;2024-03-22T04:34:09;98573.31;;;10.80;52.57
34983;BME280;21187;50.976;13.720;2024-03-22T04:39:11;98574.75;;;10.90;52.73
34983;BME280;21187;50.976;13.720;2024-03-22T04:44:12;98560.41;;;10.89;52.72
34983;BME280;21187;50.976;13.720;2024-03-22T04:49:13;98562.34;;;10.89;52.46
34983;BME280;21187;50.976;13.720;2024-03-22T04:54:14;98550.28;;;10.86;52.54
34983;BME280;21187;50.976;13.720;2024-03-22T04:59:15;98557.16;;;10.84;52.06
34983;BME280;21187;50.976;13.720;2024-03-22T05:04:16;98557.47;;;10.82;52.25
34983;BME280;21187;50.976;13.720;2024-03-22T05:09:16;98555.69;;;10.86;51.96
34983;BME280;21187;50.976;13.720;2024-03-22T05:14:19;98548.56;;;10.81;52.02
34983;BME280;21187;50.976;13.720;2024-03-22T05:19:20;98556.25;;;10.79;52.03
34983;BME280;21187;50.976;13.720;2024-03-22T05:24:21;98553.09;;;10.77;51.85
34983;BME280;21187;50.976;13.720;2024-03-22T05:29:21;98539.31;;;10.82;51.75
34983;BME280;21187;50.976;13.720;2024-03-22T05:34:22;98534.09;;;10.90;51.86
34983;BME280;21187;50.976;13.720;2024-03-22T05:39:24;98523.25;;;11.02;51.72
34983;BME280;21187;50.976;13.720;2024-03-22T05:44:24;98518.72;;;11.06;51.34
34983;BME280;21187;50.976;13.720;2024-03-22T05:49:25;98520.72;;;11.09;50.90
34983;BME280;21187;50.976;13.720;2024-03-22T05:54:26;98517.97;;;11.22;50.55
34983;BME280;21187;50.976;13.720;2024-03-22T05:59:27;98504.97;;;11.27;50.27
34983;BME280;21187;50.976;13.720;2024-03-22T06:04:28;98514.75;;;11.32;49.82
34983;BME280;21187;50.976;13.720;2024-03-22T06:09:29;98500.59;;;11.39;49.96
34983;BME280;21187;50.976;13.720;2024-03-22T06:14:56;98495.28;;;11.42;49.16
34983;BME280;21187;50.976;13.720;2024-03-22T06:19:57;98498.63;;;11.52;49.10
34983;BME280;21187;50.976;13.720;2024-03-22T06:24:58;98494.06;;;11.56;48.78
34983;BME280;21187;50.976;13.720;2024-03-22T06:29:59;98498.09;;;11.62;48.78
34983;BME280;21187;50.976;13.720;2024-03-22T06:35:00;98486.75;;;11.72;48.83
34983;BME280;21187;50.976;13.720;2024-03-22T06:40:01;98487.63;;;11.76;48.31
34983;BME280;21187;50.976;13.720;2024-03-22T06:45:03;98483.94;;;11.85;48.30
34983;BME280;21187;50.976;13.720;2024-03-22T06:50:04;98476.41;;;11.94;48.05
34983;BME280;21187;50.976;13.720;2024-03-22T06:55:06;98468.22;;;12.06;48.01
34983;BME280;21187;50.976;13.720;2024-03-22T07:00:07;98462.22;;;12.17;47.72
34983;BME280;21187;50.976;13.720;2024-03-22T07:05:11;98448.47;;;12.25;47.61
34983;BME280;21187;50.976;13.720;2024-03-22T07:10:11;98457.91;;;12.31;47.54
34983;BME280;21187;50.976;13.720;2024-03-22T07:15:12;98462.44;;;12.43;47.39
34983;BME280;21187;50.976;13.720;2024-03-22T07:20:13;98461.81;;;12.50;47.46
34983;BME280;21187;50.976;13.720;2024-03-22T07:25:14;98455.09;;;12.63;47.21
34983;BME280;21187;50.976;13.720;2024-03-22T07:30:15;98449.47;;;12.72;46.89
34983;BME280;21187;50.976;13.720;2024-03-22T07:35:16;98441.16;;;12.85;46.93
34983;BME280;21187;50.976;13.720;2024-03-22T07:40:17;98448.31;;;12.93;46.61
34983;BME280;21187;50.976;13.720;2024-03-22T07:45:18;98448.47;;;13.00;46.59
34983;BME280;21187;50.976;13.720;2024-03-22T07:50:18;98455.16;;;13.06;46.53
34983;BME280;21187;50.976;13.720;2024-03-22T07:55:19;98437.97;;;13.22;46.29
34983;BME280;21187;50.976;13.720;2024-03-22T08:00:20;98438.72;;;13.38;46.13
34983;BME280;21187;50.976;13.720;2024-03-22T08:05:21;98426.13;;;13.53;46.01
34983;BME280;21187;50.976;13.720;2024-03-22T08:10:22;98419.28;;;13.63;45.94
34983;BME280;21187;50.976;13.720;2024-03-22T08:15:24;98422.53;;;13.72;45.66
34983;BME280;21187;50.976;13.720;2024-03-22T08:20:24;98415.72;;;13.82;45.94
34983;BME280;21187;50.976;13.720;2024-03-22T08:25:25;98412.09;;;14.01;45.79
34983;BME280;21187;50.976;13.720;2024-03-22T08:30:26;98404.88;;;14.12;45.63
34983;BME280;21187;50.976;13.720;2024-03-22T08:35:27;98406.91;;;14.19;44.97
34983;BME280;21187;50.976;13.720;2024-03-22T08:40:27;98403.13;;;14.27;45.12
34983;BME280;21187;50.976;13.720;2024-03-22T08:45:28;98398.63;;;14.42;44.75
34983;BME280;21187;50.976;13.720;2024-03-22T08:50:30;98391.28;;;14.43;43.87
34983;BME280;21187;50.976;13.720;2024-03-22T08:55:31;98378.16;;;14.52;43.68
34983;BME280;21187;50.976;13.720;2024-03-22T09:00:32;98376.28;;;14.60;43.00
34983;BME280;21187;50.976;13.720;2024-03-22T09:05:32;98360.84;;;14.68;42.38
34983;BME280;21187;50.976;13.720;2024-03-22T09:10:34;98366.41;;;14.78;41.86
34983;BME280;21187;50.976;13.720;2024-03-22T09:15:34;98368.13;;;14.94;41.83
34983;BME280;21187;50.976;13.720;2024-03-22T09:20:35;98361.97;;;15.04;41.55
34983;BME280;21187;50.976;13.720;2024-03-22T09:25:36;98355.03;;;15.10;41.16
34983;BME280;21187;50.976;13.720;2024-03-22T09:30:40;98361.44;;;15.29;40.77
34983;BME280;21187;50.976;13.720;2024-03-22T09:35:41;98356.94;;;15.51;40.64
34983;BME280;21187;50.976;13.720;2024-03-22T09:40:42;98346.97;;;15.77;39.58
34983;BME280;21187;50.976;13.720;2024-03-22T09:45:43;98341.72;;;16.02;39.47
34983;BME280;21187;50.976;13.720;2024-03-22T09:50:48;98335.97;;;16.25;38.85
34983;BME280;21187;50.976;13.720;2024-03-22T09:55:49;98327.13;;;16.64;38.59
34983;BME280;21187;50.976;13.720;2024-03-22T10:00:50;98324.13;;;17.13;38.13
34983;BME280;21187;50.976;13.720;2024-03-22T10:05:51;98317.88;;;17.27;37.69
34983;BME280;21187;50.976;13.720;2024-03-22T10:10:51;98312.41;;;17.34;37.81
34983;BME280;21187;50.976;13.720;2024-03-22T10:15:52;98313.16;;;17.60;37.72
34983;BME280;21187;50.976;13.720;2024-03-22T10:21:03;98298.25;;;17.86;37.34
34983;BME280;21187;50.976;13.720;2024-03-22T10:26:04;98299.78;;;17.98;36.73
34983;BME280;21187;50.976;13.720;2024-03-22T10:31:05;98287.25;;;18.01;36.83
34983;BME280;21187;50.976;13.720;2024-03-22T10:36:06;98284.88;;;18.06;37.10
34983;BME280;21187;50.976;13.720;2024-03-22T10:41:07;98284.06;;;18.13;36.58
34983;BME280;21187;50.976;13.720;2024-03-22T10:46:09;98271.50;;;18.26;36.84
34983;BME280;21187;50.976;13.720;2024-03-22T10:51:10;98262.00;;;18.49;36.76
34983;BME280;21187;50.976;13.720;2024-03-22T10:56:11;98276.72;;;18.77;36.40
34983;BME280;21187;50.976;13.720;2024-03-22T11:01:23;98253.97;;;18.76;36.04
34983;BME280;21187;50.976;13.720;2024-03-22T11:06:26;98250.13;;;18.63;36.09
34983;BME280;21187;50.976;13.720;2024-03-22T11:11:28;98229.03;;;18.53;36.03
34983;BME280;21187;50.976;13.720;2024-03-22T11:16:30;98223.66;;;18.38;35.74
34983;BME280;21187;50.976;13.720;2024-03-22T11:21:34;98220.56;;;18.29;36.51
34983;BME280;21187;50.976;13.720;2024-03-22T11:26:34;98218.94;;;18.42;36.15
34983;BME280;21187;50.976;13.720;2024-03-22T11:31:35;98211.09;;;18.41;36.28
34983;BME280;21187;50.976;13.720;2024-03-22T11:36:37;98207.19;;;18.38;35.94
34983;BME280;21187;50.976;13.720;2024-03-22T11:41:38;98199.38;;;18.37;36.22
34983;BME280;21187;50.976;13.720;2024-03-22T11:46:39;98193.13;;;18.36;36.16
34983;BME280;21187;50.976;13.720;2024-03-22T11:51:40;98177.41;;;18.44;36.35
34983;BME280;21187;50.976;13.720;2024-03-22T11:56:41;98180.41;;;18.60;36.16
34983;BME280;21187;50.976;13.720;2024-03-22T12:01:42;98158.50;;;18.57;36.33
34983;BME280;21187;50.976;13.720;2024-03-22T12:06:44;98158.06;;;18.62;36.49
34983;BME280;21187;50.976;13.720;2024-03-22T12:11:45;98153.66;;;18.75;36.75
34983;BME280;21187;50.976;13.720;2024-03-22T12:16:48;98148.06;;;18.86;36.65
34983;BME280;21187;50.976;13.720;2024-03-22T12:21:48;98142.50;;;18.97;36.80
34983;BME280;21187;50.976;13.720;2024-03-22T12:26:50;98132.28;;;19.01;36.23
34983;BME280;21187;50.976;13.720;2024-03-22T12:31:51;98124.47;;;18.96;36.30
34983;BME280;21187;50.976;13.720;2024-03-22T12:36:52;98133.16;;;18.91;35.89
34983;BME280;21187;50.976;13.720;2024-03-22T12:41:53;98122.28;;;18.76;35.48
34983;BME280;21187;50.976;13.720;2024-03-22T12:46:54;98114.53;;;18.68;35.97
34983;BME280;21187;50.976;13.720;2024-03-22T12:51:56;98113.66;;;18.78;36.35
34983;BME280;21187;50.976;13.720;2024-03-22T12:56:57;98110.13;;;18.77;36.08
34983;BME280;21187;50.976;13.720;2024-03-22T13:01:59;98090.63;;;18.68;36.08
34983;BME280;21187;50.976;13.720;2024-03-22T13:07:00;98095.75;;;18.66;35.92
34983;BME280;21187;50.976;13.720;2024-03-22T13:12:01;98084.47;;;18.57;36.22
34983;BME280;21187;50.976;13.720;2024-03-22T13:17:03;98080.94;;;18.53;36.64
34983;BME280;21187;50.976;13.720;2024-03-22T13:22:04;98070.88;;;18.42;36.27
34983;BME280;21187;50.976;13.720;2024-03-22T13:27:05;98066.25;;;18.32;36.38
34983;BME280;21187;50.976;13.720;2024-03-22T13:32:06;98058.50;;;18.20;36.29
34983;BME280;21187;50.976;13.720;2024-03-22T13:37:11;98053.91;;;18.09;36.24
34983;BME280;21187;50.976;13.720;2024-03-22T13:42:13;98030.47;;;18.01;36.54
34983;BME280;21187;50.976;13.720;2024-03-22T13:47:14;98028.84;;;18.07;36.49
34983;BME280;21187;50.976;13.720;2024-03-22T13:52:15;98028.44;;;18.12;36.40
34983;BME280;21187;50.976;13.720;2024-03-22T13:57:16;98020.22;;;18.12;36.71
34983;BME280;21187;50.976;13.720;2024-03-22T14:02:17;98011.56;;;18.18;36.61
34983;BME280;21187;50.976;13.720;2024-03-22T14:07:17;98016.53;;;18.30;36.46
34983;BME280;21187;50.976;13.720;2024-03-22T14:12:18;98001.22;;;18.36;36.49
34983;BME280;21187;50.976;13.720;2024-03-22T14:17:19;97994.91;;;18.39;36.50
34983;BME280;21187;50.976;13.720;2024-03-22T14:22:20;97990.59;;;18.38;36.38
34983;BME280;21187;50.976;13.720;2024-03-22T14:27:20;97988.66;;;18.39;36.76
34983;BME280;21187;50.976;13.720;2024-03-22T14:32:21;97982.69;;;18.48;36.42
34983;BME280;21187;50.976;13.720;2024-03-22T14:37:22;97974.13;;;18.42;36.27
34983;BME280;21187;50.976;13.720;2024-03-22T14:42:23;97969.03;;;18.40;36.46
34983;BME280;21187;50.976;13.720;2024-03-22T14:47:23;97966.38;;;18.33;36.80
34983;BME280;21187;50.976;13.720;2024-03-22T14:52:24;97956.66;;;18.25;36.59
34983;BME280;21187;50.976;13.720;2024-03-22T14:57:25;97963.78;;;18.19;36.24
34983;BME280;21187;50.976;13.720;2024-03-22T15:02:26;97952.13;;;18.07;36.31
34983;BME280;21187;50.976;13.720;2024-03-22T15:07:26;97951.88;;;17.91;36.40
34983;BME280;21187;50.976;13.720;2024-03-22T15:12:27;97947.25;;;17.80;37.13
34983;BME280;21187;50.976;13.720;2024-03-22T15:17:29;97936.69;;;17.79;37.15
34983;BME280;21187;50.976;13.720;2024-03-22T15:22:30;97941.41;;;17.75;37.54
34983;BME280;21187;50.976;13.720;2024-03-22T15:27:31;97941.81;;;17.73;37.75
34983;BME280;21187;50.976;13.720;2024-03-22T15:32:32;97947.34;;;17.70;37.72
34983;BME280;21187;50.976;13.720;2024-03-22T15:37:37;97927.38;;;17.66;38.17
34983;BME280;21187;50.976;13.720;2024-03-22T15:42:38;97925.06;;;17.64;38.10
34983;BME280;21187;50.976;13.720;2024-03-22T15:47:39;97929.75;;;17.67;38.29
34983;BME280;21187;50.976;13.720;2024-03-22T15:52:39;97920.38;;;17.65;38.55
34983;BME280;21187;50.976;13.720;2024-03-22T15:57:40;97919.22;;;17.62;38.38
34983;BME280;21187;50.976;13.720;2024-03-22T16:02:41;97915.66;;;17.65;38.78
34983;BME280;21187;50.976;13.720;2024-03-22T16:07:42;97908.63;;;17.64;38.76
34983;BME280;21187;50.976;13.720;2024-03-22T16:12:43;97905.47;;;17.66;38.92
34983;BME280;21187;50.976;13.720;2024-03-22T16:17:44;97908.69;;;17.57;39.42
34983;BME280;21187;50.976;13.720;2024-03-22T16:22:45;97897.00;;;17.53;39.44
34983;BME280;21187;50.976;13.720;2024-03-22T16:27:46;97886.03;;;17.53;39.66
34983;BME280;21187;50.976;13.720;2024-03-22T16:32:47;97889.88;;;17.59;39.50
34983;BME280;21187;50.976;13.720;2024-03-22T16:37:49;97881.31;;;17.57;39.37
34983;BME280;21187;50.976;13.720;2024-03-22T16:42:51;97886.78;;;17.57;39.61
34983;BME280;21187;50.976;13.720;2024-03-22T16:47:52;97881.34;;;17.50;40.10
34983;BME280;21187;50.976;13.720;2024-03-22T16:52:53;97873.56;;;17.44;40.47
34983;BME280;21187;50.976;13.720;2024-03-22T16:57:54;97870.09;;;17.40;40.68
34983;BME280;21187;50.976;13.720;2024-03-22T17:03:00;97867.34;;;17.40;40.92
34983;BME280;21187;50.976;13.720;2024-03-22T17:08:01;97861.88;;;17.40;41.01
34983;BME280;21187;50.976;13.720;2024-03-22T17:13:02;97861.88;;;17.40;40.82
34983;BME280;21187;50.976;13.720;2024-03-22T17:18:03;97877.63;;;17.29;41.29
34983;BME280;21187;50.976;13.720;2024-03-22T17:23:04;97874.56;;;17.20;41.51
34983;BME280;21187;50.976;13.720;2024-03-22T17:28:05;97880.03;;;17.16;41.55
34983;BME280;21187;50.976;13.720;2024-03-22T17:33:07;97880.88;;;17.06;41.77
34983;BME280;21187;50.976;13.720;2024-03-22T17:38:08;97875.41;;;17.02;41.58
34983;BME280;21187;50.976;13.720;2024-03-22T17:43:10;97884.81;;;17.01;41.54
34983;BME280;21187;50.976;13.720;2024-03-22T17:48:11;97879.34;;;17.01;41.42
34983;BME280;21187;50.976;13.720;2024-03-22T17:53:12;97867.63;;;16.97;41.62
34983;BME280;21187;50.976;13.720;2024-03-22T17:58:13;97867.28;;;16.95;41.75
34983;BME280;21187;50.976;13.720;2024-03-22T18:03:14;97869.25;;;16.91;42.07
34983;BME280;21187;50.976;13.720;2024-03-22T18:08:15;97871.56;;;16.85;42.16
34983;BME280;21187;50.976;13.720;2024-03-22T18:13:17;97870.00;;;16.95;41.90
34983;BME280;21187;50.976;13.720;2024-03-22T18:18:17;97865.69;;;17.01;42.03
34983;BME280;21187;50.976;13.720;2024-03-22T18:23:18;97857.47;;;17.01;42.00
34983;BME280;21187;50.976;13.720;2024-03-22T18:28:19;97848.53;;;16.90;42.34
34983;BME280;21187;50.976;13.720;2024-03-22T18:33:20;97847.38;;;16.91;42.65
34983;BME280;21187;50.976;13.720;2024-03-22T18:38:21;97843.84;;;16.90;42.85
34983;BME280;21187;50.976;13.720;2024-03-22T18:43:21;97837.22;;;16.80;42.98
34983;BME280;21187;50.976;13.720;2024-03-22T18:48:22;97828.63;;;16.78;43.11
34983;BME280;21187;50.976;13.720;2024-03-22T18:53:23;97829.44;;;16.83;43.17
34983;BME280;21187;50.976;13.720;2024-03-22T18:58:24;97828.63;;;16.86;43.32
34983;BME280;21187;50.976;13.720;2024-03-22T19:03:25;97820.41;;;16.86;43.44
34983;BME280;21187;50.976;13.720;2024-03-22T19:08:25;97813.00;;;16.83;43.51
34983;BME280;21187;50.976;13.720;2024-03-22T19:13:26;97798.94;;;16.80;43.70
34983;BME280;21187;50.976;13.720;2024-03-22T19:18:27;97802.09;;;16.75;43.71
34983;BME280;21187;50.976;13.720;2024-03-22T19:23:28;97777.91;;;16.74;44.04
34983;BME280;21187;50.976;13.720;2024-03-22T19:28:29;97761.50;;;16.70;44.03
34983;BME280;21187;50.976;13.720;2024-03-22T19:33:30;97735.81;;;16.57;44.13
34983;BME280;21187;50.976;13.720;2024-03-22T19:38:31;97742.88;;;16.51;44.55
34983;BME280;21187;50.976;13.720;2024-03-22T19:43:32;97739.78;;;16.49;44.63
34983;BME280;21187;50.976;13.720;2024-03-22T19:48:35;97739.78;;;16.49;44.73
34983;BME280;21187;50.976;13.720;2024-03-22T19:53:35;97743.72;;;16.40;44.96
34983;BME280;21187;50.976;13.720;2024-03-22T19:58:36;97756.28;;;16.27;45.26
34983;BME280;21187;50.976;13.720;2024-03-22T20:03:37;97750.13;;;16.08;45.71
34983;BME280;21187;50.976;13.720;2024-03-22T20:08:38;97740.81;;;16.02;45.88
34983;BME280;21187;50.976;13.720;2024-03-22T20:13:39;97732.97;;;16.04;45.80
34983;BME280;21187;50.976;13.720;2024-03-22T20:18:40;97722.03;;;16.08;45.84
34983;BME280;21187;50.976;13.720;2024-03-22T20:23:41;97730.19;;;16.15;45.65
34983;BME280;21187;50.976;13.720;2024-03-22T20:28:42;97724.34;;;16.17;45.80
34983;BME280;21187;50.976;13.720;2024-03-22T20:33:43;97726.69;;;16.14;45.91
34983;BME280;21187;50.976;13.720;2024-03-22T20:38:47;97725.13;;;16.13;45.94
